Time;durP1;ratioP1;P1;durP2;ratioP2;P2;SDS_P1;SDS_P2;PMS_P1;PMS_P2;Temp;Humidity;BMP_temperature;BMP_pressure;BME280_temperature;BME280_humidity;BME280_pressure;Samples;Min_cycle;Max_cycle;Signal;HPM_P1;HPM_P2
2020/12/18 00:01:37;;;;;;;4.82;2.40;;;;;;;9.28;45.43;101897.06;5057977;28;20041;-66
2020/12/18 00:04:05;;;;;;;5.60;2.38;;;;;;;9.28;45.19;101898.91;5069351;28;20450;-66
2020/12/18 00:06:36;;;;;;;4.18;2.30;;;;;;;9.27;45.09;101900.78;5064617;28;20041;-66
2020/12/18 00:09:04;;;;;;;3.38;2.03;;;;;;;9.24;45.46;101892.75;5067600;28;20512;-66
2020/12/18 00:11:31;;;;;;;4.68;2.13;;;;;;;9.22;45.25;101891.97;5050588;28;20033;-66
2020/12/18 00:14:00;;;;;;;2.95;2.08;;;;;;;9.21;45.33;101901.16;5071935;28;20175;-65
2020/12/18 00:16:32;;;;;;;4.32;2.05;;;;;;;9.19;45.22;101897.66;5069928;28;20029;-65
2020/12/18 00:18:59;;;;;;;5.45;2.42;;;;;;;9.18;45.38;101893.16;5068466;28;20052;-65
2020/12/18 00:21:27;;;;;;;4.10;2.53;;;;;;;9.18;45.58;101895.00;5049832;28;20395;-66
2020/12/18 00:23:54;;;;;;;4.70;2.15;;;;;;;9.15;45.53;101887.88;5069044;28;20102;-66
2020/12/18 00:26:35;;;;;;;3.90;2.20;;;;;;;9.16;45.44;101897.84;5051486;28;20356;-66
2020/12/18 00:29:03;;;;;;;4.50;2.47;;;;;;;9.13;45.62;101888.97;5075170;28;20130;-66
2020/12/18 00:31:31;;;;;;;4.47;2.20;;;;;;;9.11;45.43;101880.00;5072124;28;20500;-66
2020/12/18 00:34:02;;;;;;;4.00;2.40;;;;;;;9.09;45.56;101887.41;5065869;28;20045;-66
2020/12/18 00:36:32;;;;;;;4.78;2.17;;;;;;;9.07;45.32;101887.50;5069242;28;20115;-66
2020/12/18 00:39:05;;;;;;;4.78;2.60;;;;;;;9.06;45.59;101882.13;5074867;28;20559;-66
2020/12/18 00:41:35;;;;;;;5.20;2.30;;;;;;;9.01;45.27;101887.91;5071190;28;20401;-65
2020/12/18 00:44:02;;;;;;;4.75;2.33;;;;;;;9.01;45.47;101890.63;5073323;28;20460;-66
2020/12/18 00:46:29;;;;;;;3.67;2.30;;;;;;;8.99;45.54;101889.84;5048418;28;20106;-66
2020/12/18 00:48:57;;;;;;;3.75;2.40;;;;;;;8.97;45.57;101898.13;5068058;28;20041;-66
2020/12/18 00:51:24;;;;;;;4.22;2.35;;;;;;;8.95;45.56;101882.84;5052344;28;20115;-66
2020/12/18 00:53:52;;;;;;;5.30;2.55;;;;;;;8.95;45.56;101886.44;5055375;28;20040;-66
2020/12/18 00:56:20;;;;;;;5.93;2.38;;;;;;;8.91;45.45;101892.19;5033638;28;20049;-66
2020/12/18 00:58:48;;;;;;;4.25;2.22;;;;;;;8.90;45.59;101894.03;5067126;28;20107;-66
2020/12/18 01:01:18;;;;;;;4.78;2.42;;;;;;;8.88;45.63;101896.00;5050181;28;20403;-66
2020/12/18 01:03:46;;;;;;;5.45;2.40;;;;;;;8.87;45.64;101888.78;5053090;28;20048;-66
2020/12/18 01:06:15;;;;;;;4.53;2.30;;;;;;;8.87;45.68;101886.06;5058739;28;20048;-66
2020/12/18 01:09:01;;;;;;;5.95;2.33;;;;;;;8.85;45.77;101888.00;5056390;28;20037;-66
2020/12/18 01:11:37;;;;;;;4.25;2.10;;;;;;;8.85;45.50;101887.13;5048516;28;20044;-66
2020/12/18 01:14:08;;;;;;;3.97;2.03;;;;;;;8.83;45.67;101887.22;5057559;28;20071;-66
2020/12/18 01:16:48;;;;;;;4.18;2.10;;;;;;;8.82;45.42;101887.28;5066356;28;20315;-66
2020/12/18 01:19:21;;;;;;;4.43;2.47;;;;;;;8.81;45.59;101888.28;5087528;28;20064;-66
2020/12/18 01:21:49;;;;;;;4.40;2.20;;;;;;;8.80;45.47;101886.53;5053465;28;20688;-66
2020/12/18 01:24:22;;;;;;;4.80;2.20;;;;;;;8.77;45.51;101894.91;5052905;28;20037;-66
2020/12/18 01:26:54;;;;;;;4.57;2.60;;;;;;;8.74;45.54;101897.81;5055087;28;20545;-66
2020/12/18 01:29:23;;;;;;;4.45;2.40;;;;;;;8.74;45.71;101885.06;5061159;28;20164;-66
2020/12/18 01:31:54;;;;;;;4.85;2.08;;;;;;;8.73;45.69;101886.03;5071530;28;20127;-66
2020/12/18 01:34:22;;;;;;;3.88;1.88;;;;;;;8.71;45.67;101885.25;5059331;28;20073;-66
2020/12/18 01:36:53;;;;;;;4.05;2.40;;;;;;;8.71;45.68;101895.28;5055287;28;20033;-66
2020/12/18 01:39:40;;;;;;;4.68;2.40;;;;;;;8.69;45.86;101895.38;5058593;28;20499;-66
2020/12/18 01:42:07;;;;;;;5.03;2.35;;;;;;;8.67;45.74;101893.72;5053838;28;20055;-66
2020/12/18 01:44:37;;;;;;;4.00;2.17;;;;;;;8.66;45.71;101901.03;5071536;28;20044;-66
2020/12/18 01:47:23;;;;;;;3.55;2.13;;;;;;;8.67;45.73;101894.59;5053523;28;20036;-66
2020/12/18 01:49:52;;;;;;;4.55;2.53;;;;;;;8.63;45.77;101903.97;5052643;28;20053;-66
2020/12/18 01:52:19;;;;;;;5.07;2.55;;;;;;;8.62;45.61;101903.06;5068946;28;20047;-66
2020/12/18 01:54:59;;;;;;;5.68;2.20;;;;;;;8.63;45.76;101895.78;5053419;28;20132;-66
2020/12/18 01:57:27;;;;;;;5.18;2.67;;;;;;;8.57;46.23;101904.31;5066086;28;20504;-66
2020/12/18 02:00:02;;;;;;;4.18;2.28;;;;;;;8.57;45.96;101898.84;5052855;28;20036;-66
2020/12/18 02:02:43;;;;;;;5.03;2.85;;;;;;;8.55;45.82;101896.25;5064897;28;20043;-65
2020/12/18 02:05:43;;;;;;;6.43;2.53;;;;;;;8.53;46.00;101895.47;5068563;28;20040;-66
2020/12/18 02:08:34;;;;;;;3.95;2.30;;;;;;;8.51;46.13;101886.47;5054901;28;20059;-66
2020/12/18 02:11:22;;;;;;;3.95;2.15;;;;;;;8.52;46.04;101887.38;5070664;28;20041;-66
2020/12/18 02:13:52;;;;;;;4.82;2.40;;;;;;;8.50;46.12;101875.66;5050208;28;20048;-66
2020/12/18 02:16:22;;;;;;;4.65;2.13;;;;;;;8.49;46.15;101873.91;5054440;28;20415;-66
2020/12/18 02:19:00;;;;;;;5.03;2.30;;;;;;;8.48;46.13;101872.16;5061405;28;20047;-66
2020/12/18 02:21:35;;;;;;;4.20;2.40;;;;;;;8.46;46.16;101868.66;5053746;28;20499;-65
2020/12/18 02:24:04;;;;;;;4.80;2.60;;;;;;;8.47;46.21;101867.69;5050370;28;20041;-66
2020/12/18 02:26:32;;;;;;;5.13;2.47;;;;;;;8.48;46.20;101874.88;5051970;28;20043;-66
2020/12/18 02:29:00;;;;;;;5.70;2.78;;;;;;;8.44;46.31;101868.75;5064741;28;20080;-66
2020/12/18 02:31:37;;;;;;;4.38;2.50;;;;;;;8.43;46.37;101875.16;5052227;28;20039;-66
2020/12/18 02:34:26;;;;;;;3.90;2.13;;;;;;;8.42;46.31;101867.03;5070637;28;20183;-66
2020/12/18 02:36:59;;;;;;;7.57;2.40;;;;;;;8.40;46.32;101861.69;5057600;28;20572;-66
2020/12/18 02:39:31;;;;;;;4.30;2.40;;;;;;;8.40;46.70;101866.25;5052256;28;20759;-66
2020/12/18 02:42:16;;;;;;;5.85;2.65;;;;;;;8.40;46.46;101860.81;5068789;28;20068;-66
2020/12/18 02:44:49;;;;;;;5.60;2.53;;;;;;;8.39;46.30;101864.53;5063528;28;20042;-66
2020/12/18 02:47:37;;;;;;;4.65;2.05;;;;;;;8.37;46.52;101872.78;5065884;28;20032;-66
2020/12/18 02:50:10;;;;;;;5.93;2.45;;;;;;;8.36;46.43;101865.59;5052359;28;20431;-66
2020/12/18 02:52:48;;;;;;;3.33;2.00;;;;;;;8.35;46.58;101866.56;5041931;28;20051;-66
2020/12/18 02:55:34;;;;;;;5.47;2.28;;;;;;;8.35;46.47;101866.56;5067137;28;20056;-66
2020/12/18 02:58:13;;;;;;;5.55;2.05;;;;;;;8.36;46.50;101859.25;5071116;28;20056;-66
2020/12/18 03:00:48;;;;;;;5.10;2.28;;;;;;;8.33;46.60;101862.16;5050387;28;20040;-66
2020/12/18 03:03:15;;;;;;;4.75;2.30;;;;;;;8.34;46.57;101864.78;5080150;28;20041;-66
2020/12/18 03:05:46;;;;;;;4.13;1.90;;;;;;;8.34;46.60;101864.78;5054643;28;20067;-66
2020/12/18 03:08:25;;;;;;;6.03;2.40;;;;;;;8.33;46.62;101864.88;5067687;28;20045;-66
2020/12/18 03:11:19;;;;;;;4.63;1.98;;;;;;;8.31;46.34;101864.13;5051872;28;20136;-66
2020/12/18 03:14:06;;;;;;;4.47;2.20;;;;;;;8.31;46.63;101862.28;5070252;28;20040;-66
2020/12/18 03:16:40;;;;;;;3.40;1.98;;;;;;;8.32;46.63;101868.56;5069454;28;20494;-66
2020/12/18 03:19:28;;;;;;;5.15;2.50;;;;;;;8.29;46.42;101866.94;5068105;28;20054;-67
2020/12/18 03:22:06;;;;;;;4.32;2.10;;;;;;;8.29;46.50;101866.94;5049530;28;20068;-66
2020/12/18 03:24:53;;;;;;;4.63;2.20;;;;;;;8.27;46.62;101868.88;5070060;28;20040;-67
2020/12/18 03:27:46;;;;;;;3.72;2.00;;;;;;;8.23;46.72;101862.72;5058651;28;20056;-68
2020/12/18 03:30:17;;;;;;;5.18;2.00;;;;;;;8.26;46.55;101864.38;5054785;28;20561;-67
2020/12/18 03:32:49;;;;;;;;;;;;;;;8.01;47.18;101864.09;5045575;28;20045;-67
2020/12/18 03:35:20;;;;;;;4.53;2.00;;;;;;;8.19;46.89;101860.28;5079690;28;19974;-67
2020/12/18 03:37:48;;;;;;;5.88;2.63;;;;;;;8.22;46.62;101865.56;5061032;28;20472;-67
2020/12/18 03:40:20;;;;;;;5.22;2.28;;;;;;;8.22;46.69;101863.72;5065620;28;20041;-66
2020/12/18 03:42:57;;;;;;;4.13;2.20;;;;;;;8.20;46.65;101860.19;5053106;28;20044;-67
2020/12/18 03:45:34;;;;;;;3.78;2.17;;;;;;;8.20;46.76;101857.47;5070086;28;20051;-66
2020/12/18 03:48:08;;;;;;;3.78;2.17;;;;;;;8.19;46.76;101865.72;5067146;28;20037;-67
2020/12/18 03:51:19;;;;;;;4.95;1.92;;;;;;;8.16;47.00;101872.22;5036580;28;20099;-67
2020/12/18 03:53:48;;;;;;;6.30;2.00;;;;;;;8.18;46.58;101870.31;5051377;28;20468;-67
2020/12/18 03:56:29;;;;;;;5.75;2.17;;;;;;;8.15;46.92;101859.56;5053261;28;20555;-67
2020/12/18 03:59:14;;;;;;;4.85;2.30;;;;;;;8.15;46.78;101862.28;5050944;28;20122;-67
2020/12/18 04:01:56;;;;;;;6.20;2.35;;;;;;;8.14;47.11;101855.13;5058162;28;20542;-67
2020/12/18 04:04:26;;;;;;;3.70;2.10;;;;;;;8.14;46.98;101857.84;5072635;28;20463;-67
2020/12/18 04:06:57;;;;;;;4.78;2.03;;;;;;;8.15;46.92;101859.56;5068340;28;20097;-67
2020/12/18 04:09:25;;;;;;;5.55;2.45;;;;;;;8.13;46.60;101858.81;5057483;28;20044;-67
2020/12/18 04:12:00;;;;;;;4.07;2.10;;;;;;;8.14;47.26;101855.13;5056102;28;20136;-67
2020/12/18 04:14:52;;;;;;;4.47;1.95;;;;;;;8.11;46.97;101866.19;5063730;28;20040;-67
2020/12/18 04:17:45;;;;;;;3.50;2.08;;;;;;;8.10;47.01;101858.09;5057300;28;20036;-66
2020/12/18 04:20:35;;;;;;;5.53;2.17;;;;;;;8.09;46.92;101862.66;5057842;28;20052;-67
2020/12/18 04:23:36;;;;;;;3.78;2.08;;;;;;;8.09;47.13;101859.06;5064351;28;20131;-67
2020/12/18 04:26:13;;;;;;;5.25;2.33;;;;;;;8.08;47.08;101863.63;5036834;28;20411;-67
2020/12/18 04:28:43;;;;;;;5.75;2.05;;;;;;;8.07;46.99;101856.44;5073592;28;20032;-67
2020/12/18 04:31:11;;;;;;;3.85;2.03;;;;;;;8.07;47.13;101853.69;5073697;28;20064;-66
2020/12/18 04:33:41;;;;;;;4.80;1.98;;;;;;;8.07;47.07;101853.69;5069293;28;20040;-67
2020/12/18 04:36:08;;;;;;;4.22;2.03;;;;;;;8.05;47.12;101855.66;5078867;28;20039;-66
2020/12/18 04:38:40;;;;;;;5.57;2.10;;;;;;;8.05;47.22;101846.63;5073127;28;20080;-67
2020/12/18 04:41:20;;;;;;;4.95;2.08;;;;;;;8.02;47.17;101853.13;5055326;28;20371;-67
2020/12/18 04:43:57;;;;;;;3.80;1.95;;;;;;;8.02;47.01;101844.94;5055527;28;20155;-67
2020/12/18 04:46:42;;;;;;;3.92;1.83;;;;;;;8.02;47.03;101847.66;5092960;28;20086;-67
2020/12/18 04:49:10;;;;;;;3.63;1.77;;;;;;;8.03;47.35;101843.09;5054256;28;20090;-67
2020/12/18 04:51:44;;;;;;;4.55;1.90;;;;;;;8.02;47.38;101844.94;5051975;28;20047;-66
2020/12/18 04:54:22;;;;;;;3.58;1.77;;;;;;;8.03;47.21;101845.81;5070484;28;20040;-67
2020/12/18 04:56:56;;;;;;;3.17;1.80;;;;;;;8.04;47.39;101853.03;5056229;28;20480;-67
2020/12/18 04:59:27;;;;;;;5.63;2.00;;;;;;;8.05;47.29;101847.50;5071801;28;20040;-67
2020/12/18 05:02:07;;;;;;;4.10;2.20;;;;;;;8.05;47.40;101841.16;5059783;28;20032;-67
2020/12/18 05:04:41;;;;;;;4.20;2.22;;;;;;;8.05;47.36;101839.31;5068058;28;20433;-67
2020/12/18 05:07:35;;;;;;;3.00;1.80;;;;;;;8.03;47.34;101835.78;5070787;28;20070;-67
2020/12/18 05:10:06;;;;;;;3.50;1.92;;;;;;;8.05;47.30;101833.00;5071891;28;20122;-66
2020/12/18 05:13:00;;;;;;;2.35;1.60;;;;;;;8.02;47.41;101831.31;5051276;28;20041;-67
2020/12/18 05:15:49;;;;;;;4.68;1.90;;;;;;;8.01;47.35;101842.31;5053835;28;20048;-67
2020/12/18 05:18:48;;;;;;;3.65;1.83;;;;;;;8.00;47.59;101841.41;5054300;28;20049;-67
2020/12/18 05:21:35;;;;;;;4.15;1.95;;;;;;;8.02;47.42;101839.50;5055208;28;20040;-67
2020/12/18 05:24:06;;;;;;;4.40;1.80;;;;;;;8.01;47.29;101842.31;5055424;28;20198;-67
2020/12/18 05:26:38;;;;;;;4.38;2.00;;;;;;;8.02;47.45;101844.06;5055502;28;20128;-67
2020/12/18 05:29:10;;;;;;;4.40;1.90;;;;;;;8.01;47.27;101842.31;5059971;28;20049;-66
2020/12/18 05:32:16;;;;;;;3.72;2.13;;;;;;;8.00;47.29;101840.53;4993624;28;20044;-67
2020/12/18 05:34:52;;;;;;;4.35;1.90;;;;;;;8.00;47.53;101840.53;5000841;28;20037;-67
2020/12/18 05:37:41;;;;;;;4.05;2.17;;;;;;;8.00;47.44;101835.97;5037031;28;20051;-66
2020/12/18 05:40:20;;;;;;;3.47;1.63;;;;;;;8.00;47.39;101838.69;5060592;28;20086;-67
2020/12/18 05:43:14;;;;;;;6.03;2.15;;;;;;;7.97;47.51;101836.19;5055488;28;20053;-66
2020/12/18 05:45:45;;;;;;;3.63;1.83;;;;;;;7.98;47.44;101829.75;5071371;28;20064;-67
2020/12/18 05:48:31;;;;;;;5.20;2.28;;;;;;;7.98;47.36;101829.75;5071954;28;20044;-66
2020/12/18 05:51:27;;;;;;;5.80;2.15;;;;;;;7.99;47.88;101825.16;5049842;28;20156;-66
2020/12/18 05:54:11;;;;;;;4.05;1.90;;;;;;;8.00;47.85;101837.81;5054617;28;20372;-67
2020/12/18 05:56:48;;;;;;;4.82;1.90;;;;;;;7.98;47.60;101826.16;5087811;28;20128;-67
2020/12/18 05:59:17;;;;;;;3.83;1.70;;;;;;;7.99;47.58;101830.59;5038585;28;20418;-67
2020/12/18 06:01:54;;;;;;;3.75;2.08;;;;;;;7.99;47.38;101825.16;5070045;28;20067;-67
2020/12/18 06:04:29;;;;;;;4.70;1.95;;;;;;;7.98;47.50;101820.72;5073106;28;20098;-67
2020/12/18 06:07:00;;;;;;;3.83;2.03;;;;;;;7.95;47.61;101820.88;5053394;28;20045;-67
2020/12/18 06:10:02;;;;;;;4.93;1.90;;;;;;;7.97;47.62;101830.72;5068758;28;20403;-67
2020/12/18 06:13:00;;;;;;;4.40;1.88;;;;;;;7.97;47.58;101825.28;5072071;28;20057;-67
2020/12/18 06:15:40;;;;;;;2.92;1.60;;;;;;;7.97;47.69;101825.28;5065686;28;20558;-67
2020/12/18 06:18:16;;;;;;;5.53;1.98;;;;;;;7.99;47.82;101816.97;5068559;28;20154;-67
2020/12/18 06:20:44;;;;;;;3.95;1.77;;;;;;;7.98;47.69;101831.59;5087283;28;20116;-67
2020/12/18 06:23:15;;;;;;;3.58;1.92;;;;;;;8.00;47.60;101822.34;5066643;28;20434;-67
2020/12/18 06:26:03;;;;;;;3.80;1.88;;;;;;;7.99;47.68;101826.03;5071196;28;20047;-67
2020/12/18 06:28:51;;;;;;;3.85;1.83;;;;;;;7.98;47.94;101824.31;5011338;28;20048;-67
2020/12/18 06:31:24;;;;;;;3.47;1.98;;;;;;;8.01;47.73;101824.09;5053661;28;20413;-67
2020/12/18 06:34:21;;;;;;;5.47;1.90;;;;;;;7.98;47.58;101816.13;5069326;28;20040;-67
2020/12/18 06:37:07;;;;;;;4.57;2.00;;;;;;;7.98;47.84;101817.97;5068993;28;20052;-67
2020/12/18 06:39:54;;;;;;;4.55;1.88;;;;;;;7.96;47.84;101812.63;5059573;28;20068;-67
2020/12/18 06:42:47;;;;;;;4.28;1.98;;;;;;;8.00;47.86;101814.16;5071387;28;20440;-67
2020/12/18 06:46:03;;;;;;;3.38;1.90;;;;;;;8.00;47.91;101818.75;5052687;28;20040;-67
2020/12/18 06:48:51;;;;;;;5.43;2.17;;;;;;;7.98;47.71;101821.59;5064322;28;20106;-67
2020/12/18 06:51:46;;;;;;;4.80;2.08;;;;;;;7.95;47.75;101816.31;5071502;28;20044;-67
2020/12/18 06:54:56;;;;;;;6.28;2.85;;;;;;;7.97;47.66;101816.22;5060704;28;20037;-67
2020/12/18 06:57:31;;;;;;;3.97;2.25;;;;;;;7.94;47.69;101811.81;5054044;28;20033;-67
2020/12/18 07:00:29;;;;;;;6.15;2.05;;;;;;;7.98;47.81;101816.13;5069833;28;20052;-67
2020/12/18 07:03:00;;;;;;;4.95;2.08;;;;;;;7.94;47.70;101824.56;5070890;28;20510;-67
2020/12/18 07:05:36;;;;;;;4.50;1.90;;;;;;;7.98;47.75;101818.88;5061254;28;20049;-67
2020/12/18 07:08:06;;;;;;;3.22;1.88;;;;;;;7.97;47.76;101818.94;5066653;28;20423;-67
2020/12/18 07:10:39;;;;;;;4.50;1.80;;;;;;;8.00;48.49;101821.47;5068342;28;20611;-67
2020/12/18 07:13:07;;;;;;;3.80;1.67;;;;;;;7.97;48.15;101821.69;5067004;28;20046;-68
2020/12/18 07:15:52;;;;;;;5.90;2.10;;;;;;;7.99;48.32;101812.41;5047389;28;20036;-68
2020/12/18 07:18:21;;;;;;;4.47;2.10;;;;;;;7.99;48.09;101812.41;5065695;28;20040;-68
2020/12/18 07:20:50;;;;;;;3.80;1.85;;;;;;;8.02;47.99;101812.25;5066213;28;20064;-68
2020/12/18 07:23:18;;;;;;;4.18;1.98;;;;;;;8.05;48.06;101809.34;5068162;28;20106;-67
2020/12/18 07:25:48;;;;;;;4.43;2.25;;;;;;;8.06;48.00;101812.94;5068861;28;20044;-67
2020/12/18 07:28:17;;;;;;;4.03;1.95;;;;;;;8.09;47.87;101815.47;5070972;28;20032;-68
2020/12/18 07:30:46;;;;;;;3.42;2.03;;;;;;;8.11;48.24;101808.09;5067672;28;20107;-68
2020/12/18 07:33:16;;;;;;;6.25;2.20;;;;;;;8.12;47.87;101804.38;5068431;28;20135;-67
2020/12/18 07:35:45;;;;;;;7.30;2.25;;;;;;;8.12;48.12;101808.00;5065394;28;20067;-68
2020/12/18 07:38:17;;;;;;;5.32;2.03;;;;;;;8.13;47.85;101806.16;5062318;28;20041;-68
2020/12/18 07:40:47;;;;;;;3.40;1.88;;;;;;;8.12;48.02;101802.53;5071323;28;20490;-68
2020/12/18 07:43:16;;;;;;;3.95;2.10;;;;;;;8.16;48.11;101803.22;5069066;28;20040;-67
2020/12/18 07:45:46;;;;;;;4.38;2.25;;;;;;;8.16;47.89;101800.50;5066509;28;20563;-68
2020/12/18 07:48:16;;;;;;;4.35;2.13;;;;;;;8.17;47.91;101804.97;5064971;28;20040;-68
2020/12/18 07:50:58;;;;;;;6.05;2.50;;;;;;;8.19;47.86;101797.59;5067235;28;20836;-68
2020/12/18 07:53:26;;;;;;;4.97;2.25;;;;;;;8.15;47.96;101799.59;5072245;28;20170;-68
2020/12/18 07:56:07;;;;;;;3.47;1.98;;;;;;;8.19;47.93;101792.13;5064577;28;20127;-67
2020/12/18 07:58:46;;;;;;;5.87;2.37;;;;;;;8.16;47.88;101790.47;5030699;28;20565;-67
2020/12/18 08:01:15;;;;;;;4.30;2.20;;;;;;;8.17;47.91;101794.94;5063949;28;20041;-68
2020/12/18 08:03:49;;;;;;;6.35;2.40;;;;;;;8.18;47.91;101793.97;5064589;28;20045;-66
2020/12/18 08:06:19;;;;;;;5.32;2.30;;;;;;;8.17;47.97;101788.63;5068010;28;20602;-66
2020/12/18 08:08:55;;;;;;;5.63;2.33;;;;;;;8.20;48.08;101793.91;5069167;28;20389;-67
2020/12/18 08:11:23;;;;;;;4.20;2.20;;;;;;;8.18;47.68;101806.72;5070012;28;20040;-67
2020/12/18 08:13:51;;;;;;;6.63;2.33;;;;;;;8.17;48.13;101799.53;5066257;28;20132;-68
2020/12/18 08:16:19;;;;;;;4.88;2.22;;;;;;;8.17;47.92;101803.13;5070306;28;20036;-68
2020/12/18 08:18:51;;;;;;;4.75;2.30;;;;;;;8.19;47.73;101806.63;5070316;28;20037;-67
2020/12/18 08:21:23;;;;;;;4.05;2.33;;;;;;;8.19;47.98;101797.59;5052621;28;20045;-68
2020/12/18 08:23:57;;;;;;;5.25;2.33;;;;;;;8.18;48.09;101793.97;5070674;28;20044;-68
2020/12/18 08:26:27;;;;;;;5.07;2.28;;;;;;;8.18;48.09;101798.56;5050480;28;20040;-68
2020/12/18 08:28:55;;;;;;;4.60;2.08;;;;;;;8.19;48.00;101803.91;5068144;28;20052;-67
2020/12/18 08:31:24;;;;;;;3.78;2.25;;;;;;;8.19;48.00;101803.03;5051827;28;20044;-68
2020/12/18 08:33:54;;;;;;;4.85;2.40;;;;;;;8.20;48.21;101794.78;5081466;28;20043;-68
2020/12/18 08:36:25;;;;;;;4.05;2.33;;;;;;;8.21;48.11;101806.56;5075199;28;20458;-68
2020/12/18 08:39:01;;;;;;;4.65;2.42;;;;;;;8.24;48.49;101800.91;5054306;28;20068;-67
2020/12/18 08:41:38;;;;;;;4.45;2.30;;;;;;;8.24;48.32;101799.03;5069558;28;20391;-67
2020/12/18 08:44:07;;;;;;;6.10;2.80;;;;;;;8.20;48.30;101800.22;5069934;28;20136;-68
2020/12/18 08:46:35;;;;;;;4.68;2.50;;;;;;;8.21;48.27;101801.09;5070588;28;20132;-68
2020/12/18 08:49:12;;;;;;;6.35;2.78;;;;;;;8.26;48.33;101809.88;5069419;28;20055;-66
2020/12/18 08:51:40;;;;;;;4.72;2.60;;;;;;;8.22;48.14;101803.75;5074261;28;20040;-66
2020/12/18 08:54:25;;;;;;;4.55;2.28;;;;;;;8.27;48.55;101811.63;5072092;28;20055;-67
2020/12/18 08:57:12;;;;;;;4.95;2.75;;;;;;;8.27;48.42;101808.91;5068569;28;20453;-66
2020/12/18 08:59:40;;;;;;;4.57;2.38;;;;;;;8.26;48.52;101807.13;5074217;28;20098;-68
2020/12/18 09:02:15;;;;;;;8.50;2.58;;;;;;;8.31;48.39;101810.47;5071181;28;20055;-67
2020/12/18 09:04:44;;;;;;;5.53;2.40;;;;;;;8.31;48.40;101812.31;5074549;28;20124;-67
2020/12/18 09:07:12;;;;;;;4.65;2.38;;;;;;;8.32;48.35;101812.19;5073918;28;20048;-67
2020/12/18 09:09:53;;;;;;;4.35;2.10;;;;;;;8.37;48.69;101814.66;5072476;28;20087;-67
2020/12/18 09:12:20;;;;;;;6.28;2.30;;;;;;;8.37;48.61;101815.53;5075313;28;20163;-66
2020/12/18 09:14:49;;;;;;;4.63;2.30;;;;;;;8.40;48.56;101806.28;5067218;28;20086;-66
2020/12/18 09:17:17;;;;;;;4.22;2.38;;;;;;;8.43;48.52;101815.19;5072797;28;20033;-67
2020/12/18 09:19:46;;;;;;;4.13;2.25;;;;;;;8.46;48.62;101809.56;5066626;28;20036;-67
2020/12/18 09:22:14;;;;;;;7.25;2.20;;;;;;;8.49;48.63;101819.38;5073275;28;20103;-66
2020/12/18 09:24:41;;;;;;;3.88;2.30;;;;;;;8.52;48.64;101821.91;5071359;28;20048;-67
2020/12/18 09:27:10;;;;;;;5.63;2.42;;;;;;;8.56;48.61;101820.72;5067721;28;20472;-67
2020/12/18 09:29:37;;;;;;;4.93;2.50;;;;;;;8.58;48.41;101825.13;5054447;28;20373;-67
2020/12/18 09:32:05;;;;;;;3.55;2.00;;;;;;;8.61;48.60;101822.22;5070891;28;20052;-68
2020/12/18 09:34:33;;;;;;;5.90;2.58;;;;;;;8.66;48.39;101827.38;5074281;28;20111;-67
2020/12/18 09:37:11;;;;;;;3.75;2.20;;;;;;;8.70;48.24;101828.94;5083173;28;20047;-68
2020/12/18 09:39:38;;;;;;;3.60;2.22;;;;;;;8.70;48.55;101831.69;5071007;28;20106;-67
2020/12/18 09:42:06;;;;;;;4.40;2.00;;;;;;;8.74;48.49;101843.25;5069622;28;20044;-67
2020/12/18 09:44:33;;;;;;;4.55;2.17;;;;;;;8.76;48.43;101846.78;5044101;28;20045;-68
2020/12/18 09:47:00;;;;;;;5.07;2.20;;;;;;;8.79;48.19;101852.03;5056124;28;20040;-67
2020/12/18 09:49:27;;;;;;;5.35;2.08;;;;;;;8.81;48.34;101850.06;5071291;28;20045;-67
2020/12/18 09:51:55;;;;;;;3.88;2.30;;;;;;;8.82;48.35;101852.72;5069629;28;20060;-68
2020/12/18 09:54:23;;;;;;;4.18;2.28;;;;;;;8.86;48.29;101858.88;5073295;28;20044;-68
2020/12/18 09:56:53;;;;;;;5.38;2.28;;;;;;;8.90;48.06;101854.94;5073456;28;20499;-68
2020/12/18 09:59:20;;;;;;;4.93;2.13;;;;;;;8.91;48.19;101859.44;5063002;28;20539;-67
2020/12/18 10:01:51;;;;;;;4.22;2.42;;;;;;;8.94;48.03;101857.41;5075915;28;20087;-68
2020/12/18 10:04:19;;;;;;;5.13;2.45;;;;;;;8.95;48.31;101853.69;5067538;28;20128;-67
2020/12/18 10:06:46;;;;;;;5.15;2.45;;;;;;;9.00;48.39;101861.59;5083009;28;20054;-67
2020/12/18 10:09:13;;;;;;;3.40;1.70;;;;;;;9.03;48.39;101858.66;5070763;28;20047;-67
2020/12/18 10:11:41;;;;;;;4.38;1.88;;;;;;;9.09;48.29;101866.44;5072003;28;20044;-68
2020/12/18 10:14:09;;;;;;;4.80;2.25;;;;;;;9.12;48.46;101860.81;5072762;28;20052;-68
2020/12/18 10:16:36;;;;;;;5.35;2.20;;;;;;;9.14;48.22;101858.84;5071934;28;20123;-68
2020/12/18 10:19:04;;;;;;;3.97;2.40;;;;;;;9.20;48.47;101873.97;5071847;28;20047;-69
2020/12/18 10:21:31;;;;;;;5.20;2.10;;;;;;;9.23;48.44;101863.69;5072320;28;20410;-68
2020/12/18 10:23:58;;;;;;;4.00;1.95;;;;;;;9.28;48.12;101868.88;5069974;28;20503;-68
2020/12/18 10:26:25;;;;;;;3.72;2.10;;;;;;;9.32;48.20;101852.19;5072569;28;20037;-68
2020/12/18 10:28:54;;;;;;;3.92;2.00;;;;;;;9.38;48.04;101856.38;5072468;28;20048;-68
2020/12/18 10:31:21;;;;;;;2.78;1.77;;;;;;;9.41;47.95;101858.91;5069258;28;20048;-69
2020/12/18 10:33:48;;;;;;;4.10;2.03;;;;;;;9.45;48.00;101851.41;5068960;28;20110;-69
2020/12/18 10:36:15;;;;;;;4.28;1.90;;;;;;;9.49;48.08;101845.63;5081754;28;20044;-68
2020/12/18 10:38:43;;;;;;;3.10;1.75;;;;;;;9.53;47.72;101843.56;5074785;28;20047;-68
2020/12/18 10:41:10;;;;;;;4.03;1.80;;;;;;;9.58;48.02;101844.13;5067158;28;20048;-69
2020/12/18 10:43:38;;;;;;;3.38;1.85;;;;;;;9.61;47.72;101847.53;5072702;28;20040;-69
2020/12/18 10:46:10;;;;;;;3.75;1.92;;;;;;;9.66;47.66;101853.56;5059693;28;20045;-68
2020/12/18 10:48:38;;;;;;;3.70;2.00;;;;;;;9.69;47.88;101850.69;5071945;28;20036;-68
2020/12/18 10:51:06;;;;;;;6.63;2.20;;;;;;;9.75;47.95;101849.38;5071094;28;20072;-68
2020/12/18 10:53:33;;;;;;;3.75;1.90;;;;;;;9.81;47.65;101846.22;5072347;28;20041;-69
2020/12/18 10:56:01;;;;;;;4.80;1.95;;;;;;;9.89;47.88;101845.69;5071861;28;20356;-69
2020/12/18 10:58:30;;;;;;;3.88;2.05;;;;;;;9.95;47.84;101837.09;5086113;28;20435;-68
2020/12/18 11:00:57;;;;;;;3.75;1.95;;;;;;;10.00;47.89;101838.53;5070598;28;20056;-68
2020/12/18 11:03:25;;;;;;;5.40;2.10;;;;;;;10.07;47.82;101845.34;5066751;28;20488;-68
2020/12/18 11:05:52;;;;;;;4.72;1.98;;;;;;;10.13;47.55;101836.69;5071740;28;20037;-68
2020/12/18 11:08:19;;;;;;;4.78;2.38;;;;;;;10.21;47.47;101832.56;5075876;28;20036;-68
2020/12/18 11:10:47;;;;;;;3.53;1.83;;;;;;;10.28;47.49;101829.31;5061282;28;20091;-68
2020/12/18 11:13:14;;;;;;;4.00;1.90;;;;;;;10.35;47.48;101835.22;5068223;28;20055;-68
2020/12/18 11:15:43;;;;;;;4.47;1.88;;;;;;;10.41;47.29;101830.19;5070876;28;20055;-68
2020/12/18 11:18:10;;;;;;;3.65;1.90;;;;;;;10.48;47.04;101826.03;5070851;28;20037;-68
2020/12/18 11:20:39;;;;;;;4.00;1.80;;;;;;;10.56;47.08;101824.63;5069784;28;20048;-68
2020/12/18 11:23:06;;;;;;;4.00;1.90;;;;;;;10.61;46.87;101826.06;5066922;28;20036;-68
2020/12/18 11:25:33;;;;;;;3.65;1.90;;;;;;;10.67;47.24;101811.94;5070233;28;20565;-68
2020/12/18 11:28:01;;;;;;;4.72;2.00;;;;;;;10.75;47.02;101814.13;5070268;28;20120;-68
2020/12/18 11:30:29;;;;;;;3.65;2.13;;;;;;;10.80;46.72;101817.38;5069228;28;20064;-68
2020/12/18 11:32:56;;;;;;;3.75;1.95;;;;;;;10.88;46.53;101804.06;5069881;28;20123;-68
2020/12/18 11:35:24;;;;;;;4.00;2.15;;;;;;;10.95;46.52;101807.25;5067782;28;20041;-68
2020/12/18 11:37:52;;;;;;;4.10;1.88;;;;;;;11.01;46.66;101790.34;5054052;28;20032;-68
2020/12/18 11:40:20;;;;;;;4.95;1.90;;;;;;;11.07;46.74;101788.03;5077557;28;20080;-68
2020/12/18 11:42:47;;;;;;;5.75;2.22;;;;;;;11.13;46.35;101787.56;5072187;28;20491;-69
2020/12/18 11:45:14;;;;;;;3.45;1.92;;;;;;;11.19;46.15;101791.75;5071103;28;20564;-69
2020/12/18 11:47:42;;;;;;;3.60;2.05;;;;;;;11.25;45.75;101785.81;5066077;28;20052;-69
2020/12/18 11:50:11;;;;;;;5.10;2.08;;;;;;;11.31;45.58;101776.25;5069960;28;20044;-68
2020/12/18 11:52:39;;;;;;;4.25;1.90;;;;;;;11.34;45.44;101776.91;5071360;28;20267;-68
2020/12/18 11:55:07;;;;;;;3.78;2.08;;;;;;;11.38;45.18;101772.91;5070508;28;20402;-68
2020/12/18 11:57:43;;;;;;;4.65;1.83;;;;;;;11.39;45.08;101771.06;5063918;28;20491;-67
2020/12/18 12:00:10;;;;;;;4.80;1.80;;;;;;;11.43;45.11;101761.63;5068586;28;20050;-67
2020/12/18 12:02:41;;;;;;;4.25;1.80;;;;;;;11.46;45.25;101761.38;5070942;28;20383;-68
2020/12/18 12:05:08;;;;;;;3.05;1.98;;;;;;;11.47;45.22;101763.13;5055337;28;20368;-67